Time;durP1;ratioP1;P1;durP2;ratioP2;P2;SDS_P1;SDS_P2;PMS_P1;PMS_P2;Temp;Humidity;BMP_temperature;BMP_pressure;BME280_temperature;BME280_humidity;BME280_pressure;Samples;Min_cycle;Max_cycle;Signal;HPM_P1;HPM_P2
2022/12/29 00:01:41;;;;;;;3.58;1.30;;;10.20;1.00;;;;;;5070487;28;20024;-73
2022/12/29 00:04:11;;;;;;;2.42;1.48;;;10.20;1.00;;;;;;5067504;28;20048;-74
2022/12/29 00:06:37;;;;;;;2.97;1.20;;;10.20;1.00;;;;;;5060941;28;20051;-73
2022/12/29 00:09:04;;;;;;;3.95;1.42;;;10.30;1.00;;;;;;5072364;28;20029;-73
2022/12/29 00:11:30;;;;;;;3.20;1.15;;;10.40;1.00;;;;;;5071002;28;20033;-73
2022/12/29 00:16:43;;;;;;;5.57;1.55;;;10.40;1.00;;;;;;5070135;28;20055;-73
2022/12/29 00:35:07;;;;;;;4.97;1.00;;;10.50;1.00;;;;;;5070493;28;20032;-73
2022/12/29 00:36:13;;;;;;;40.00;21.05;;;11.00;1.00;;;;;;5069958;28;20032;-73
2022/12/29 00:44:14;;;;;;;17.02;9.85;;;11.00;1.00;;;;;;5070764;28;20039;-73
2022/12/29 00:46:41;;;;;;;19.73;11.13;;;11.00;1.00;;;;;;5070139;28;20466;-73
2022/12/29 00:49:30;;;;;;;25.88;13.93;;;11.00;1.00;;;;;;5070178;28;20044;-74
2022/12/29 00:52:03;;;;;;;18.77;9.70;;;11.10;1.00;;;;;;5071262;28;20099;-72
2022/12/29 00:54:32;;;;;;;23.77;12.73;;;11.10;1.00;;;;;;5052488;28;20032;-73
2022/12/29 00:56:58;;;;;;;43.53;22.98;;;11.20;1.00;;;;;;5065263;28;20052;-73
2022/12/29 00:59:25;;;;;;;25.00;13.45;;;11.30;1.00;;;;;;5058145;28;20036;-73
2022/12/29 01:01:52;;;;;;;96.28;57.00;;;11.20;1.00;;;;;;5073525;28;20040;-73
2022/12/29 01:04:21;;;;;;;25.98;15.60;;;11.20;1.00;;;;;;5050148;28;20045;-73
2022/12/29 01:06:49;;;;;;;14.60;8.02;;;11.20;1.00;;;;;;5068604;28;20128;-73
2022/12/29 01:12:01;;;;;;;13.70;7.60;;;11.20;1.00;;;;;;5075028;28;20043;-73
2022/12/29 01:14:28;;;;;;;24.05;14.50;;;11.20;1.00;;;;;;5056044;28;20214;-72
2022/12/29 01:16:55;;;;;;;11.82;6.38;;;11.20;1.00;;;;;;5074622;28;20056;-72
2022/12/29 01:19:21;;;;;;;5.63;2.50;;;11.30;1.00;;;;;;5072672;28;20457;-72
2022/12/29 01:21:49;;;;;;;3.47;1.63;;;11.20;1.00;;;;;;5074997;28;20028;-73
2022/12/29 01:24:16;;;;;;;5.43;2.38;;;11.20;1.00;;;;;;5056292;28;20387;-73
2022/12/29 01:26:43;;;;;;;5.50;3.30;;;11.20;1.00;;;;;;5074696;28;20032;-72
2022/12/29 01:29:09;;;;;;;11.45;7.00;;;11.20;1.00;;;;;;5072840;28;20024;-74
2022/12/29 01:31:35;;;;;;;9.38;4.82;;;11.20;1.00;;;;;;5056654;28;20037;-72
2022/12/29 01:34:02;;;;;;;9.88;5.28;;;11.20;1.00;;;;;;5074391;28;20036;-73
2022/12/29 01:36:28;;;;;;;15.63;6.90;;;11.20;1.00;;;;;;5073427;28;20609;-73
2022/12/29 01:38:54;;;;;;;10.23;5.97;;;11.20;1.00;;;;;;5054727;28;20040;-72
2022/12/29 01:41:22;;;;;;;10.05;4.57;;;11.20;1.00;;;;;;5073730;28;20036;-73
2022/12/29 01:43:52;;;;;;;13.18;6.93;;;11.20;1.00;;;;;;5039455;28;20048;-73
2022/12/29 01:46:23;;;;;;;5.13;2.17;;;11.20;1.00;;;;;;5055349;28;20461;-73
2022/12/29 01:48:59;;;;;;;6.63;3.87;;;11.20;1.00;;;;;;5072023;28;20401;-73
2022/12/29 01:51:27;;;;;;;5.25;2.65;;;11.20;1.00;;;;;;5073374;28;20039;-73
2022/12/29 01:53:55;;;;;;;8.23;4.47;;;11.30;1.00;;;;;;5074238;28;20044;-72
2022/12/29 01:56:22;;;;;;;13.45;7.57;;;11.30;1.00;;;;;;5066710;28;20024;-73
2022/12/29 01:58:54;;;;;;;13.13;8.07;;;11.30;1.00;;;;;;5054554;28;20409;-73
2022/12/29 02:01:21;;;;;;;2.15;1.02;;;11.30;1.00;;;;;;5073120;28;20047;-73
2022/12/29 02:03:49;;;;;;;4.55;2.67;;;11.30;1.00;;;;;;5074008;28;20051;-72
2022/12/29 02:06:51;;;;;;;1.25;0.60;;;11.30;1.00;;;;;;5054823;28;20052;-73
2022/12/29 02:09:18;;;;;;;6.65;3.80;;;11.30;1.00;;;;;;5068828;28;20182;-72
2022/12/29 02:11:44;;;;;;;1.67;1.17;;;11.30;1.00;;;;;;5038847;28;20063;-72
2022/12/29 02:14:14;;;;;;;8.93;5.13;;;11.30;1.00;;;;;;5054155;28;20055;-73
2022/12/29 02:16:57;;;;;;;3.35;0.95;;;11.30;1.00;;;;;;5073948;28;20037;-73
2022/12/29 02:19:53;;;;;;;3.35;1.52;;;11.30;1.00;;;;;;5047690;28;20051;-72
2022/12/29 02:22:26;;;;;;;2.90;0.82;;;11.20;1.00;;;;;;5026844;28;20036;-74
2022/12/29 02:25:18;;;;;;;1.52;0.77;;;11.30;1.00;;;;;;5074118;28;20028;-73
2022/12/29 02:27:52;;;;;;;;;;;11.30;1.00;;;;;;5074173;28;20041;-74
2022/12/29 02:31:05;;;;;;;1.52;0.60;;;11.20;1.00;;;;;;5062508;28;20670;-73
2022/12/29 02:33:42;;;;;;;4.47;0.90;;;11.30;1.00;;;;;;4991876;28;20042;-72
2022/12/29 02:36:33;;;;;;;1.65;0.90;;;11.30;1.00;;;;;;5052746;28;20041;-73
2022/12/29 02:39:10;;;;;;;4.50;0.80;;;11.30;1.00;;;;;;5055107;28;20040;-73
2022/12/29 02:42:03;;;;;;;1.65;0.55;;;11.30;1.00;;;;;;5053768;28;20370;-73
2022/12/29 02:44:43;;;;;;;2.25;0.60;;;11.30;1.00;;;;;;5025005;28;20643;-73
2022/12/29 02:47:38;;;;;;;3.30;0.50;;;11.30;1.00;;;;;;5054937;28;20048;-73
2022/12/29 02:50:09;;;;;;;1.85;0.50;;;11.40;1.00;;;;;;5026024;28;20041;-74
2022/12/29 02:52:40;;;;;;;2.75;0.55;;;11.40;1.00;;;;;;5072571;28;20036;-73
2022/12/29 02:55:07;;;;;;;2.03;0.60;;;11.40;1.00;;;;;;5073498;28;20382;-73
2022/12/29 02:57:35;;;;;;;3.60;0.63;;;11.40;1.00;;;;;;5053841;28;20064;-73
2022/12/29 03:00:09;;;;;;;1.25;0.60;;;11.40;1.00;;;;;;5054267;28;20070;-73
2022/12/29 03:02:44;;;;;;;2.15;0.40;;;11.40;1.00;;;;;;5072471;28;20033;-73
2022/12/29 03:05:50;;;;;;;1.88;1.60;;;11.50;1.00;;;;;;5054337;28;20426;-76
2022/12/29 03:08:22;;;;;;;3.00;1.13;;;11.40;1.00;;;;;;5056134;28;20432;-74
2022/12/29 03:11:05;;;;;;;2.17;0.88;;;11.40;1.00;;;;;;5054518;28;20504;-73
2022/12/29 03:16:48;;;;;;;3.40;1.05;;;11.30;1.00;;;;;;5067947;28;20488;-73
2022/12/29 03:19:15;;;;;;;3.67;2.65;;;11.30;1.00;;;;;;5091691;28;20040;-75
2022/12/29 03:24:51;;;;;;;1.73;1.15;;;11.30;1.00;;;;;;5091144;28;20501;-73
2022/12/29 03:27:36;;;;;;;3.03;0.88;;;11.30;1.00;;;;;;5092022;28;20028;-75
2022/12/29 03:30:05;;;;;;;1.15;0.50;;;11.30;1.00;;;;;;5090431;28;20028;-73
2022/12/29 03:32:36;;;;;;;3.25;0.98;;;11.20;1.00;;;;;;5090035;28;20814;-73
2022/12/29 03:35:04;;;;;;;2.25;0.60;;;11.20;1.00;;;;;;5091162;28;20036;-73
2022/12/29 03:37:38;;;;;;;2.35;0.70;;;11.20;1.00;;;;;;5091525;28;20024;-74
2022/12/29 03:40:05;;;;;;;3.45;0.90;;;11.20;1.00;;;;;;5089162;28;20077;-73
2022/12/29 03:42:35;;;;;;;0.93;0.50;;;11.20;1.00;;;;;;5090338;28;20051;-73
2022/12/29 03:45:04;;;;;;;1.83;0.82;;;11.20;1.00;;;;;;5090712;28;20397;-73
2022/12/29 03:47:32;;;;;;;2.80;0.80;;;11.20;1.00;;;;;;5091584;28;20070;-74
2022/12/29 03:49:58;;;;;;;2.25;0.70;;;11.30;1.00;;;;;;5089662;28;20032;-74
2022/12/29 03:52:25;;;;;;;1.33;0.85;;;11.30;1.00;;;;;;5089363;28;20043;-73
2022/12/29 03:54:52;;;;;;;1.98;0.50;;;11.30;1.00;;;;;;5090836;28;20504;-73
2022/12/29 03:57:19;;;;;;;3.90;1.55;;;11.30;1.00;;;;;;5089316;28;20043;-74
2022/12/29 03:59:55;;;;;;;1.17;0.57;;;11.20;1.00;;;;;;5089802;28;20067;-73
2022/12/29 04:02:22;;;;;;;6.40;1.05;;;11.30;1.00;;;;;;5089652;28;20051;-73
2022/12/29 04:04:48;;;;;;;2.25;0.60;;;11.30;1.00;;;;;;5089687;28;20044;-73
2022/12/29 04:07:14;;;;;;;1.52;0.57;;;11.30;1.00;;;;;;5073586;28;20036;-73
2022/12/29 04:09:41;;;;;;;1.77;1.00;;;11.20;1.00;;;;;;5089632;28;20048;-73
2022/12/29 04:12:10;;;;;;;1.30;0.50;;;11.30;1.00;;;;;;5072778;28;20048;-73
2022/12/29 04:14:37;;;;;;;1.35;0.70;;;11.30;1.00;;;;;;5089179;28;20044;-73
2022/12/29 04:17:03;;;;;;;2.42;0.80;;;11.30;1.00;;;;;;5078055;28;20040;-73
2022/12/29 04:19:30;;;;;;;3.13;0.90;;;11.20;1.00;;;;;;5052540;28;20045;-73
2022/12/29 04:21:56;;;;;;;1.15;0.60;;;11.30;1.00;;;;;;5070121;28;20039;-73
2022/12/29 04:24:22;;;;;;;4.25;0.93;;;11.30;1.00;;;;;;5052158;28;20041;-73
2022/12/29 04:26:50;;;;;;;1.58;0.50;;;11.20;1.00;;;;;;5053212;28;20070;-73
2022/12/29 04:29:51;;;;;;;3.15;0.68;;;11.20;1.00;;;;;;4988758;28;20053;-73
2022/12/29 04:32:45;;;;;;;1.83;0.77;;;11.20;1.00;;;;;;5048875;28;20037;-73
2022/12/29 04:35:12;;;;;;;5.55;0.80;;;11.20;1.00;;;;;;5052748;28;20048;-73
2022/12/29 04:37:38;;;;;;;1.65;0.68;;;11.20;1.00;;;;;;5070228;28;20038;-73
2022/12/29 04:40:04;;;;;;;1.23;0.50;;;11.20;1.00;;;;;;5070074;28;20788;-73
2022/12/29 04:42:31;;;;;;;1.25;0.60;;;11.20;1.00;;;;;;5035686;28;20032;-72
2022/12/29 04:44:57;;;;;;;2.42;0.77;;;11.20;1.00;;;;;;5071397;28;20485;-73
2022/12/29 04:47:55;;;;;;;1.95;0.73;;;11.20;1.00;;;;;;5059784;28;20056;-73
2022/12/29 04:50:56;;;;;;;1.17;0.60;;;11.10;1.00;;;;;;5043575;28;20048;-73
2022/12/29 04:53:25;;;;;;;1.40;0.50;;;11.10;1.00;;;;;;5052206;28;20393;-73
2022/12/29 04:55:53;;;;;;;0.70;0.50;;;11.00;1.00;;;;;;5052846;28;20041;-73
2022/12/29 04:58:21;;;;;;;1.42;0.60;;;11.00;1.00;;;;;;5052150;28;20040;-74
2022/12/29 05:00:48;;;;;;;1.13;0.40;;;10.90;1.00;;;;;;5069746;28;20389;-72
2022/12/29 05:03:14;;;;;;;3.67;1.52;;;10.90;1.00;;;;;;5052835;28;20044;-72
2022/12/29 05:05:43;;;;;;;2.20;0.70;;;10.90;1.00;;;;;;5052161;28;20040;-72
2022/12/29 05:08:09;;;;;;;0.88;0.57;;;11.00;1.00;;;;;;5051869;28;20063;-72
2022/12/29 05:10:35;;;;;;;2.70;0.65;;;11.00;1.00;;;;;;5050027;28;20049;-72
2022/12/29 05:13:10;;;;;;;1.23;0.40;;;11.00;1.00;;;;;;5052857;28;20052;-72
2022/12/29 05:15:37;;;;;;;2.42;0.75;;;11.00;1.00;;;;;;5051731;28;20430;-72
2022/12/29 05:18:03;;;;;;;0.85;0.55;;;10.90;1.00;;;;;;5052773;28;20043;-72
2022/12/29 05:20:29;;;;;;;2.40;0.93;;;10.90;1.00;;;;;;5034493;28;20040;-73
2022/12/29 05:22:57;;;;;;;1.30;0.60;;;10.90;1.00;;;;;;5053043;28;20374;-73
2022/12/29 05:25:23;;;;;;;1.45;0.55;;;11.00;1.00;;;;;;5051993;28;20052;-74
2022/12/29 05:27:59;;;;;;;2.83;0.63;;;11.00;1.00;;;;;;5052749;28;20044;-73
2022/12/29 05:30:40;;;;;;;3.10;0.50;;;11.00;1.00;;;;;;5044411;28;20052;-73
2022/12/29 05:33:07;;;;;;;3.92;1.67;;;11.00;1.00;;;;;;5053369;28;20048;-73
2022/12/29 05:35:34;;;;;;;3.63;2.33;;;11.00;1.00;;;;;;5052063;28;20036;-73
2022/12/29 05:38:01;;;;;;;7.63;3.13;;;11.00;1.00;;;;;;5052512;28;20045;-72
2022/12/29 05:40:27;;;;;;;3.90;1.88;;;10.90;1.00;;;;;;5050365;28;20052;-73
2022/12/29 05:42:57;;;;;;;11.45;6.22;;;10.90;1.00;;;;;;5052302;28;20048;-72
2022/12/29 05:45:40;;;;;;;11.35;5.50;;;10.90;1.00;;;;;;5038059;28;20052;-73
2022/12/29 05:48:33;;;;;;;16.50;10.68;;;10.90;1.00;;;;;;5061307;28;20040;-72
2022/12/29 05:51:20;;;;;;;15.68;8.55;;;10.90;1.00;;;;;;5053954;28;20036;-73
2022/12/29 05:53:48;;;;;;;8.68;5.35;;;10.80;1.00;;;;;;5050130;28;20062;-72
2022/12/29 05:56:16;;;;;;;7.47;4.90;;;10.90;1.00;;;;;;5049639;28;20041;-73
2022/12/29 05:58:42;;;;;;;5.55;3.95;;;10.90;1.00;;;;;;5054534;28;20070;-73
2022/12/29 06:01:08;;;;;;;6.57;3.65;;;11.00;1.00;;;;;;5054480;28;20041;-73
2022/12/29 06:03:34;;;;;;;8.77;4.68;;;10.90;1.00;;;;;;5054579;28;20044;-72
2022/12/29 06:06:00;;;;;;;13.30;8.10;;;10.90;1.00;;;;;;5055680;28;20037;-73
2022/12/29 06:08:27;;;;;;;8.63;5.93;;;10.90;1.00;;;;;;5054461;28;20044;-73
2022/12/29 06:10:54;;;;;;;4.53;3.08;;;10.90;1.00;;;;;;5073009;28;20036;-72
2022/12/29 06:13:20;;;;;;;4.10;2.97;;;10.90;1.00;;;;;;5055374;28;20124;-74
2022/12/29 06:15:50;;;;;;;3.08;1.63;;;10.90;1.00;;;;;;5059401;28;20051;-72
2022/12/29 06:18:16;;;;;;;2.78;1.02;;;10.90;1.00;;;;;;5092796;28;20040;-72
2022/12/29 06:20:44;;;;;;;5.15;4.70;;;10.90;1.00;;;;;;5090356;28;20595;-73
2022/12/29 06:23:12;;;;;;;4.32;2.20;;;10.90;1.00;;;;;;5092095;28;20036;-73
2022/12/29 06:25:39;;;;;;;1.95;1.05;;;10.90;1.00;;;;;;5091692;28;20044;-72
2022/12/29 06:28:05;;;;;;;4.93;1.38;;;10.90;1.00;;;;;;5092507;28;20036;-72
2022/12/29 06:30:32;;;;;;;2.97;1.10;;;10.90;1.00;;;;;;5091603;28;20039;-72
2022/12/29 06:33:00;;;;;;;1.98;0.82;;;10.90;1.00;;;;;;5091951;28;20044;-73
2022/12/29 06:35:26;;;;;;;2.90;1.20;;;10.80;1.00;;;;;;5091374;28;20048;-74
2022/12/29 06:37:52;;;;;;;2.67;0.90;;;10.80;1.00;;;;;;5092171;28;20488;-73
2022/12/29 06:40:19;;;;;;;1.60;0.88;;;10.90;1.00;;;;;;5090717;28;20040;-74
2022/12/29 06:43:04;;;;;;;1.77;0.77;;;11.00;1.00;;;;;;5096991;28;20040;-73
2022/12/29 06:45:58;;;;;;;1.95;0.80;;;11.00;1.00;;;;;;5080464;28;20405;-74
2022/12/29 06:48:24;;;;;;;1.80;0.65;;;11.00;1.00;;;;;;5092747;28;20031;-74
2022/12/29 06:50:51;;;;;;;5.70;1.00;;;11.00;1.00;;;;;;5081224;28;20049;-73
2022/12/29 06:53:17;;;;;;;2.13;0.80;;;11.00;1.00;;;;;;5092882;28;20507;-72
2022/12/29 06:55:43;;;;;;;2.75;1.27;;;11.10;1.00;;;;;;5091492;28;20042;-74
2022/12/29 06:58:09;;;;;;;2.97;1.25;;;11.00;1.00;;;;;;5093574;28;20028;-74
2022/12/29 07:00:35;;;;;;;2.28;1.10;;;11.10;1.00;;;;;;5089698;28;20078;-74
2022/12/29 07:03:01;;;;;;;3.10;1.23;;;11.10;1.00;;;;;;5093147;28;20029;-74
2022/12/29 07:05:31;;;;;;;2.50;0.90;;;11.10;1.00;;;;;;5091171;28;20048;-72
2022/12/29 07:07:57;;;;;;;5.15;1.10;;;11.00;1.00;;;;;;5093030;28;20036;-74
2022/12/29 07:10:23;;;;;;;1.38;0.85;;;11.00;1.00;;;;;;5091007;28;20377;-75
2022/12/29 07:12:50;;;;;;;3.75;0.88;;;11.10;1.00;;;;;;5092044;28;20036;-74
2022/12/29 07:15:16;;;;;;;1.17;0.70;;;11.10;1.00;;;;;;5093059;28;20036;-72
2022/12/29 07:17:42;;;;;;;3.70;0.93;;;11.10;1.00;;;;;;5072986;28;20045;-72
2022/12/29 07:20:09;;;;;;;1.92;0.70;;;11.20;1.00;;;;;;5072139;28;20032;-73
2022/12/29 07:22:36;;;;;;;1.55;0.98;;;11.20;1.00;;;;;;5062382;28;20040;-72
2022/12/29 07:25:03;;;;;;;2.00;0.80;;;11.20;1.00;;;;;;5073343;28;20036;-73
2022/12/29 07:27:29;;;;;;;2.65;0.77;;;11.20;1.00;;;;;;5072492;28;20031;-72
2022/12/29 07:29:55;;;;;;;4.72;1.05;;;11.20;1.00;;;;;;5075395;28;20486;-74
2022/12/29 07:32:21;;;;;;;2.78;1.00;;;11.30;1.00;;;;;;5073479;28;20425;-73
2022/12/29 07:34:47;;;;;;;2.83;0.80;;;11.30;1.00;;;;;;5072460;28;20490;-73
2022/12/29 07:37:15;;;;;;;2.95;0.73;;;11.30;1.00;;;;;;5072303;28;20041;-73
2022/12/29 07:39:41;;;;;;;2.28;0.80;;;11.40;1.00;;;;;;5053818;28;20405;-72
2022/12/29 07:42:07;;;;;;;2.28;0.73;;;11.40;1.00;;;;;;5072133;28;20036;-72
2022/12/29 07:44:41;;;;;;;3.30;0.90;;;11.50;1.00;;;;;;5053504;28;20044;-72
2022/12/29 07:47:22;;;;;;;2.40;0.82;;;11.50;1.00;;;;;;5071764;28;20525;-72
2022/12/29 07:49:48;;;;;;;4.18;0.95;;;11.50;1.00;;;;;;5071227;28;20040;-72
2022/12/29 07:52:14;;;;;;;1.70;1.15;;;11.50;1.00;;;;;;5071304;28;20030;-72
2022/12/29 07:54:40;;;;;;;4.32;1.35;;;11.50;1.00;;;;;;5071420;28;20032;-72
2022/12/29 07:57:06;;;;;;;3.22;1.30;;;11.50;1.00;;;;;;5072200;28;20036;-72
2022/12/29 07:59:32;;;;;;;3.90;1.30;;;11.50;1.00;;;;;;5070931;28;20043;-72
2022/12/29 08:01:59;;;;;;;3.95;2.03;;;11.50;1.00;;;;;;5071486;28;20493;-73
2022/12/29 08:04:25;;;;;;;28.17;15.85;;;11.50;1.00;;;;;;5070229;28;20383;-73
2022/12/29 08:06:51;;;;;;;17.65;8.18;;;11.50;1.00;;;;;;5071828;28;20032;-73
2022/12/29 08:09:17;;;;;;;6.50;2.90;;;11.60;1.00;;;;;;5071987;28;20032;-73
2022/12/29 08:11:43;;;;;;;8.02;4.35;;;11.60;1.00;;;;;;5070456;28;20033;-73
2022/12/29 08:14:10;;;;;;;10.45;6.68;;;11.60;1.00;;;;;;5052086;28;20064;-72
2022/12/29 08:16:36;;;;;;;19.27;11.82;;;11.60;1.00;;;;;;5069927;28;20374;-73
2022/12/29 08:19:03;;;;;;;5.55;3.15;;;11.60;1.00;;;;;;5092204;28;20035;-73
2022/12/29 08:21:30;;;;;;;7.95;3.95;;;11.50;1.00;;;;;;5091301;28;20499;-73
2022/12/29 08:23:57;;;;;;;9.30;4.70;;;11.60;1.00;;;;;;5090481;28;20028;-73
2022/12/29 08:26:23;;;;;;;3.38;2.28;;;11.60;1.00;;;;;;5092430;28;20047;-78
2022/12/29 08:28:51;;;;;;;7.78;4.78;;;11.70;1.00;;;;;;5091490;28;20028;-78
2022/12/29 08:31:17;;;;;;;7.60;3.67;;;11.70;1.00;;;;;;5092169;28;20028;-76
2022/12/29 08:33:43;;;;;;;4.95;3.58;;;11.80;99.90;;;;;;5089821;28;20032;-78
2022/12/29 08:36:09;;;;;;;3.53;2.75;;;11.80;99.90;;;;;;5091720;28;20043;-77
2022/12/29 08:38:36;;;;;;;6.05;1.70;;;11.80;1.00;;;;;;5090190;28;20036;-76
2022/12/29 08:41:02;;;;;;;4.97;2.10;;;11.80;1.00;;;;;;5092068;28;20036;-77
2022/12/29 08:43:28;;;;;;;6.85;2.95;;;11.70;1.00;;;;;;5089659;28;20031;-77
2022/12/29 08:45:55;;;;;;;7.72;3.92;;;11.80;1.00;;;;;;5088950;28;20043;-77
2022/12/29 08:48:22;;;;;;;6.20;4.15;;;11.90;1.00;;;;;;5083813;28;20028;-77
2022/12/29 08:50:49;;;;;;;5.53;2.55;;;11.90;1.00;;;;;;5084860;28;20044;-77
2022/12/29 08:53:17;;;;;;;3.90;1.92;;;11.90;1.00;;;;;;5076809;28;20024;-77
2022/12/29 08:55:47;;;;;;;2.35;1.65;;;12.00;1.00;;;;;;5085433;28;20047;-77
2022/12/29 08:58:16;;;;;;;;;;;11.90;1.00;;;;;;5073305;28;20129;-77
2022/12/29 09:00:43;;;;;;;2.63;1.65;;;11.90;1.00;;;;;;5089856;28;19904;-77
2022/12/29 09:03:10;;;;;;;4.18;2.10;;;11.90;1.00;;;;;;5088840;28;20064;-77
2022/12/29 09:05:36;;;;;;;4.57;2.40;;;12.00;1.00;;;;;;5091064;28;20028;-78
2022/12/29 09:08:04;;;;;;;4.03;1.60;;;11.90;1.00;;;;;;5089667;28;20040;-76
2022/12/29 09:10:30;;;;;;;4.80;1.55;;;11.90;1.00;;;;;;5091033;28;20055;-77
2022/12/29 09:12:56;;;;;;;4.63;1.92;;;11.90;1.00;;;;;;5089193;28;20377;-77
2022/12/29 09:15:22;;;;;;;3.03;1.50;;;11.90;1.00;;;;;;5091721;28;20032;-77
2022/12/29 09:17:49;;;;;;;6.88;1.35;;;11.80;1.00;;;;;;5065683;28;20040;-77
2022/12/29 09:20:18;;;;;;;4.53;1.65;;;11.80;1.00;;;;;;5069890;28;20043;-78
2022/12/29 09:22:45;;;;;;;3.55;1.33;;;11.90;1.00;;;;;;5062561;28;20032;-75
2022/12/29 09:25:11;;;;;;;5.70;2.08;;;12.00;1.00;;;;;;5054107;28;20035;-75
2022/12/29 09:27:38;;;;;;;3.35;1.02;;;12.00;1.00;;;;;;5052902;28;20039;-75
2022/12/29 09:30:07;;;;;;;2.47;1.23;;;12.20;99.90;;;;;;5056551;28;20041;-76
2022/12/29 09:32:34;;;;;;;5.60;1.63;;;12.30;99.90;;;;;;5053400;28;20033;-76
2022/12/29 09:35:00;;;;;;;2.97;1.40;;;12.40;99.90;;;;;;5032685;28;20505;-76
2022/12/29 09:37:26;;;;;;;2.75;1.10;;;12.50;99.90;;;;;;5067790;28;20028;-76
2022/12/29 09:39:52;;;;;;;2.80;1.00;;;12.50;99.90;;;;;;5054518;28;20037;-78
2022/12/29 09:42:27;;;;;;;3.05;1.20;;;12.60;99.90;;;;;;5066121;28;20029;-75
2022/12/29 09:45:06;;;;;;;3.70;1.58;;;12.70;99.90;;;;;;5047618;28;20036;-76
2022/12/29 09:47:32;;;;;;;8.20;2.25;;;12.70;99.90;;;;;;5064278;28;20037;-77
2022/12/29 09:50:05;;;;;;;3.92;1.83;;;12.60;99.90;;;;;;5067784;28;20378;-77
2022/12/29 09:52:43;;;;;;;2.65;1.00;;;12.60;1.00;;;;;;5064800;28;20028;-76
2022/12/29 09:55:15;;;;;;;9.52;3.60;;;12.50;1.00;;;;;;5073318;28;20041;-79
2022/12/29 09:57:59;;;;;;;3.75;1.73;;;12.60;1.00;;;;;;5054624;28;20060;-78
2022/12/29 10:00:59;;;;;;;3.47;1.20;;;12.60;1.00;;;;;;5069316;28;20385;-73
2022/12/29 10:03:40;;;;;;;3.45;1.70;;;12.60;99.90;;;;;;5056333;28;20032;-77
2022/12/29 10:06:11;;;;;;;;;;;12.60;99.90;;;;;;5067128;28;20055;-77
2022/12/29 10:08:56;;;;;;;4.55;1.70;;;12.60;99.90;;;;;;5073472;28;20277;-74
2022/12/29 10:11:44;;;;;;;2.38;1.20;;;12.70;99.90;;;;;;5074084;28;20466;-76
2022/12/29 10:14:13;;;;;;;3.08;1.50;;;12.70;99.90;;;;;;5074197;28;20047;-76
2022/12/29 10:16:45;;;;;;;3.17;1.20;;;12.70;1.00;;;;;;5071669;28;20051;-75
2022/12/29 10:19:42;;;;;;;4.30;1.33;;;12.70;1.00;;;;;;5056037;28;20025;-76
2022/12/29 10:22:30;;;;;;;4.43;1.65;;;12.60;1.00;;;;;;5070539;28;20036;-76
2022/12/29 10:24:57;;;;;;;3.33;1.38;;;12.50;1.00;;;;;;5056282;28;20044;-77
2022/12/29 10:27:24;;;;;;;3.20;1.10;;;12.50;1.00;;;;;;5054338;28;20047;-76
2022/12/29 10:29:55;;;;;;;2.40;1.50;;;12.60;1.00;;;;;;5073242;28;20197;-78
2022/12/29 10:32:22;;;;;;;4.25;1.85;;;12.60;1.00;;;;;;5073582;28;20035;-76
2022/12/29 10:34:53;;;;;;;7.35;1.73;;;12.60;1.00;;;;;;5064299;28;20040;-76
2022/12/29 10:37:39;;;;;;;5.28;2.75;;;12.60;1.00;;;;;;5045762;28;20048;-77
2022/12/29 10:40:23;;;;;;;4.03;2.85;;;12.60;1.00;;;;;;5047146;28;20033;-75
2022/12/29 10:42:56;;;;;;;5.63;3.38;;;12.60;1.00;;;;;;5066277;28;20043;-76
2022/12/29 10:45:28;;;;;;;2.58;1.38;;;12.60;1.00;;;;;;5030772;28;20040;-77
2022/12/29 10:48:03;;;;;;;2.88;1.30;;;12.70;1.00;;;;;;5054052;28;20044;-78
2022/12/29 10:50:29;;;;;;;14.38;5.03;;;12.70;1.00;;;;;;5049767;28;20044;-79
2022/12/29 10:53:02;;;;;;;3.55;1.50;;;12.80;1.00;;;;;;5068390;28;20029;-76
2022/12/29 10:55:33;;;;;;;3.47;1.80;;;12.80;1.00;;;;;;5054444;28;20040;-75
2022/12/29 10:58:04;;;;;;;4.63;2.08;;;12.90;1.00;;;;;;5069135;28;20481;-75
2022/12/29 11:00:31;;;;;;;2.50;1.15;;;12.80;99.90;;;;;;5067569;28;20095;-76
2022/12/29 11:03:30;;;;;;;4.43;1.27;;;12.90;99.90;;;;;;5072708;28;20029;-77
2022/12/29 11:06:04;;;;;;;2.67;1.10;;;13.00;99.90;;;;;;5043555;28;20040;-76
2022/12/29 11:08:36;;;;;;;5.00;1.33;;;13.00;99.90;;;;;;5073636;28;20033;-75
2022/12/29 11:11:05;;;;;;;2.55;1.23;;;13.00;99.90;;;;;;5073380;28;20028;-76
2022/12/29 11:13:33;;;;;;;2.28;0.88;;;13.00;99.90;;;;;;5073071;28;20039;-75
2022/12/29 11:16:00;;;;;;;3.42;1.00;;;12.90;99.90;;;;;;5072949;28;20139;-76
2022/12/29 11:18:39;;;;;;;4.20;0.90;;;12.90;99.90;;;;;;5054603;28;20401;-78
2022/12/29 11:21:39;;;;;;;2.42;1.20;;;12.80;1.00;;;;;;5045825;28;20033;-76
2022/12/29 11:24:20;;;;;;;2.43;0.83;;;12.80;1.00;;;;;;5063815;28;20040;-79
2022/12/29 11:26:48;;;;;;;2.17;1.17;;;12.90;1.00;;;;;;5063505;28;20256;-77
2022/12/29 11:29:17;;;;;;;1.27;0.85;;;12.90;1.00;;;;;;5062627;28;20036;-78
2022/12/29 11:31:52;;;;;;;4.38;1.08;;;12.90;1.00;;;;;;5069434;28;20039;-78
2022/12/29 11:34:30;;;;;;;1.95;1.00;;;12.80;1.00;;;;;;5072957;28;20382;-83
2022/12/29 11:37:06;;;;;;;3.42;1.17;;;12.70;1.00;;;;;;5072311;28;20032;-81
2022/12/29 11:39:57;;;;;;;2.90;1.20;;;12.70;1.00;;;;;;5062206;28;20470;-79
2022/12/29 11:42:40;;;;;;;5.32;1.30;;;12.70;1.00;;;;;;5035387;28;20037;-80
2022/12/29 11:45:17;;;;;;;2.85;1.27;;;12.60;1.00;;;;;;5064173;28;20040;-79
2022/12/29 11:47:53;;;;;;;2.80;1.30;;;12.60;1.00;;;;;;5066704;28;20481;-78
2022/12/29 11:50:41;;;;;;;2.08;0.95;;;12.60;1.00;;;;;;5063006;28;20036;-78
2022/12/29 11:53:23;;;;;;;2.75;1.02;;;12.70;1.00;;;;;;5057830;28;20029;-79
2022/12/29 11:55:52;;;;;;;2.45;0.80;;;12.70;1.00;;;;;;5036104;28;20041;-78
2022/12/29 11:58:18;;;;;;;2.15;1.30;;;12.70;1.00;;;;;;5052750;28;20486;-79
2022/12/29 12:00:49;;;;;;;3.95;1.55;;;12.70;1.00;;;;;;5052344;28;20035;-78
2022/12/29 12:03:26;;;;;;;3.47;1.60;;;12.70;1.00;;;;;;5052941;28;20021;-79
2022/12/29 12:06:00;;;;;;;2.50;1.20;;;12.80;1.00;;;;;;5034019;28;20051;-78
2022/12/29 12:08:32;;;;;;;3.15;1.33;;;12.90;1.00;;;;;;5057949;28;20043;-79
2022/12/29 12:11:18;;;;;;;5.07;2.35;;;13.00;1.00;;;;;;5036285;28;20064;-79
2022/12/29 12:14:12;;;;;;;8.73;4.03;;;13.10;1.00;;;;;;5034130;28;20475;-80
2022/12/29 12:17:12;;;;;;;4.40;1.52;;;13.20;99.90;;;;;;5051847;28;20064;-79
2022/12/29 12:19:44;;;;;;;2.67;0.70;;;13.20;99.90;;;;;;5061795;28;20029;-81
2022/12/29 12:22:13;;;;;;;3.78;1.20;;;13.20;99.90;;;;;;5037788;28;20044;-76
2022/12/29 12:25:06;;;;;;;2.58;1.67;;;13.20;99.90;;;;;;5053927;28;20044;-83
2022/12/29 12:27:40;;;;;;;2.58;0.70;;;13.30;99.90;;;;;;5085435;28;20036;-82
2022/12/29 12:30:17;;;;;;;3.90;0.70;;;13.20;99.90;;;;;;5086433;28;20036;-87
2022/12/29 12:32:56;;;;;;;2.47;1.10;;;13.30;99.90;;;;;;5061078;28;20032;-82
2022/12/29 12:35:32;;;;;;;5.20;2.92;;;13.20;99.90;;;;;;5076881;28;20378;-86
2022/12/29 12:38:16;;;;;;;12.32;6.63;;;13.10;99.90;;;;;;5064478;28;20592;-85
2022/12/29 12:40:48;;;;;;;2.70;1.50;;;13.10;99.90;;;;;;5072481;28;20100;-79
2022/12/29 12:43:32;;;;;;;2.63;0.80;;;13.00;99.90;;;;;;5072254;28;20033;-80
2022/12/29 12:46:19;;;;;;;3.25;1.13;;;12.90;99.90;;;;;;5070934;28;20041;-80
2022/12/29 12:49:11;;;;;;;2.45;1.08;;;12.90;99.90;;;;;;5071466;28;20032;-81
2022/12/29 12:51:53;;;;;;;5.20;2.13;;;12.90;99.90;;;;;;5050767;28;20025;-82
2022/12/29 12:54:22;;;;;;;1.65;0.55;;;12.70;99.90;;;;;;5034142;28;20063;-82
2022/12/29 12:56:58;;;;;;;3.45;0.50;;;12.60;99.90;;;;;;5043969;28;20036;-81
2022/12/29 12:59:31;;;;;;;3.85;1.10;;;12.60;99.90;;;;;;5054165;28;20381;-81
2022/12/29 13:02:33;;;;;;;4.60;2.72;;;12.50;99.90;;;;;;5050060;28;20032;-82
2022/12/29 13:05:08;;;;;;;6.05;1.35;;;12.50;99.90;;;;;;5066416;28;20033;-81
2022/12/29 13:08:00;;;;;;;1.15;0.70;;;12.60;99.90;;;;;;5073608;28;20036;-80
2022/12/29 13:10:29;;;;;;;2.05;0.82;;;12.60;99.90;;;;;;5010731;28;20036;-81
2022/12/29 13:13:23;;;;;;;2.50;0.82;;;12.60;99.90;;;;;;5074097;28;20381;-77
2022/12/29 13:16:04;;;;;;;2.05;0.70;;;12.70;99.90;;;;;;5074148;28;20052;-75
2022/12/29 13:18:57;;;;;;;6.30;2.15;;;12.70;99.90;;;;;;5074928;28;20037;-75
2022/12/29 13:21:46;;;;;;;6.18;3.00;;;12.70;99.90;;;;;;5075203;28;20032;-74
2022/12/29 13:24:25;;;;;;;5.82;3.33;;;12.60;99.90;;;;;;5071655;28;20374;-74
2022/12/29 13:26:59;;;;;;;2.72;1.45;;;12.50;99.90;;;;;;5071368;28;20029;-75
2022/12/29 13:29:42;;;;;;;3.58;1.40;;;12.50;99.90;;;;;;5074240;28;20103;-83
2022/12/29 13:32:27;;;;;;;5.53;2.47;;;12.40;99.90;;;;;;5075071;28;20492;-84
2022/12/29 13:35:01;;;;;;;3.85;1.88;;;12.40;99.90;;;;;;5050401;28;20055;-83
2022/12/29 13:37:31;;;;;;;5.55;0.75;;;12.30;99.90;;;;;;5069408;28;20478;-81
2022/12/29 13:40:04;;;;;;;1.33;0.55;;;12.30;99.90;;;;;;5056265;28;20044;-82
2022/12/29 13:42:31;;;;;;;3.92;1.38;;;12.20;99.90;;;;;;5057237;28;20485;-83
2022/12/29 13:45:06;;;;;;;4.38;1.08;;;12.20;99.90;;;;;;5072223;28;20099;-83
2022/12/29 13:47:41;;;;;;;1.25;0.70;;;12.10;99.90;;;;;;5041031;28;20082;-81
2022/12/29 13:50:22;;;;;;;2.15;0.88;;;12.10;99.90;;;;;;5053211;28;20036;-83
2022/12/29 13:53:23;;;;;;;2.42;0.82;;;12.00;99.90;;;;;;5069031;28;20029;-86
2022/12/29 13:55:53;;;;;;;1.60;0.73;;;12.00;99.90;;;;;;5073705;28;20077;-83